createdAt,value
2018-11-04T00:02:24.745Z,1.90
2018-11-04T00:04:53.182Z,1.90
2018-11-04T00:07:21.825Z,1.90
2018-11-04T00:09:50.222Z,1.80
2018-11-04T00:12:18.633Z,1.90
2018-11-04T00:14:47.073Z,1.80
2018-11-04T00:17:15.481Z,1.70
2018-11-04T00:19:43.885Z,1.70
2018-11-04T00:22:12.289Z,1.60
2018-11-04T00:24:40.685Z,1.60
2018-11-04T00:27:09.126Z,1.50
2018-11-04T00:29:37.583Z,1.50
2018-11-04T00:32:06.578Z,1.50
2018-11-04T00:34:34.979Z,1.60
2018-11-04T00:37:03.406Z,1.80
2018-11-04T00:39:31.813Z,1.90
2018-11-04T00:42:00.241Z,2.00
2018-11-04T00:44:28.632Z,2.00
2018-11-04T00:46:57.043Z,2.10
2018-11-04T00:49:26.072Z,2.20
2018-11-04T00:51:54.505Z,2.10
2018-11-04T00:54:22.911Z,2.20
2018-11-04T00:56:51.328Z,2.20
2018-11-04T00:59:19.729Z,2.30
2018-11-04T01:01:48.187Z,2.30
2018-11-04T01:04:16.979Z,2.30
2018-11-04T01:06:45.658Z,2.20
2018-11-04T01:09:14.269Z,2.20
2018-11-04T01:11:42.800Z,2.30
2018-11-04T01:14:11.199Z,2.20
2018-11-04T01:16:39.613Z,2.30
2018-11-04T01:19:08.020Z,2.30
2018-11-04T01:21:36.412Z,2.20
2018-11-04T01:24:04.894Z,2.30
2018-11-04T01:26:33.350Z,2.30
2018-11-04T01:29:01.748Z,2.30
2018-11-04T01:31:30.161Z,2.30
2018-11-04T01:33:58.589Z,2.30
2018-11-04T01:36:27.000Z,2.30
2018-11-04T01:38:55.385Z,2.20
2018-11-04T01:41:23.829Z,2.20
2018-11-04T01:43:52.264Z,2.20
2018-11-04T01:46:20.666Z,2.20
2018-11-04T01:48:49.048Z,2.20
2018-11-04T01:51:17.487Z,2.20
2018-11-04T01:53:45.868Z,2.20
2018-11-04T01:56:14.245Z,2.30
2018-11-04T01:58:42.654Z,2.20
2018-11-04T02:01:11.050Z,2.20
2018-11-04T02:03:39.463Z,2.10
2018-11-04T02:06:07.946Z,2.00
2018-11-04T02:08:36.321Z,2.00
2018-11-04T02:11:05.037Z,2.00
2018-11-04T02:13:33.566Z,2.00
2018-11-04T02:16:02.076Z,2.00
2018-11-04T02:18:30.560Z,2.10
2018-11-04T02:20:59.000Z,2.10
2018-11-04T02:23:27.454Z,2.10
2018-11-04T02:25:55.916Z,2.10
2018-11-04T02:28:24.342Z,2.10
2018-11-04T02:30:52.801Z,2.00
2018-11-04T02:33:21.816Z,2.00
2018-11-04T02:35:50.276Z,2.00
2018-11-04T02:38:18.704Z,2.20
2018-11-04T02:40:47.218Z,2.20
2018-11-04T02:43:16.432Z,2.20
2018-11-04T02:45:44.854Z,2.20
2018-11-04T02:48:13.282Z,2.20
2018-11-04T02:50:41.689Z,2.20
2018-11-04T02:53:10.161Z,2.30
2018-11-04T02:55:38.657Z,2.30
2018-11-04T02:58:07.110Z,2.40
2018-11-04T03:00:35.513Z,2.40
2018-11-04T03:03:05.477Z,2.50
2018-11-04T03:05:33.900Z,2.60
2018-11-04T03:08:02.365Z,2.50
2018-11-04T03:10:30.775Z,2.50
2018-11-04T03:12:59.228Z,2.50
2018-11-04T03:15:28.378Z,2.60
2018-11-04T03:17:56.817Z,2.60
2018-11-04T03:20:25.326Z,2.60
2018-11-04T03:22:53.999Z,2.60
2018-11-04T03:25:22.512Z,2.70
2018-11-04T03:27:51.018Z,2.60
2018-11-04T03:30:19.458Z,2.80
2018-11-04T03:32:47.886Z,2.80
2018-11-04T03:35:16.322Z,2.90
2018-11-04T03:37:44.792Z,2.90
2018-11-04T03:40:13.826Z,2.90
2018-11-04T03:42:42.769Z,2.90
2018-11-04T03:45:11.382Z,2.80
2018-11-04T03:47:40.190Z,2.80
2018-11-04T03:50:10.509Z,2.80
2018-11-04T03:52:38.945Z,2.80
2018-11-04T03:55:07.759Z,2.80
2018-11-04T03:57:36.591Z,2.80
2018-11-04T04:00:05.338Z,2.90
2018-11-04T04:02:34.317Z,2.90
2018-11-04T04:05:02.784Z,3.00
2018-11-04T04:07:31.196Z,3.00
2018-11-04T04:09:59.616Z,3.00
2018-11-04T04:12:28.121Z,3.00
2018-11-04T04:14:56.539Z,3.10
2018-11-04T04:17:25.028Z,3.00
2018-11-04T04:19:53.609Z,2.90
2018-11-04T04:22:22.145Z,2.90
2018-11-04T04:24:50.601Z,2.90
2018-11-04T04:27:19.030Z,2.80
2018-11-04T04:29:47.594Z,2.90
2018-11-04T04:32:16.027Z,2.90
2018-11-04T04:34:44.559Z,2.90
2018-11-04T04:37:13.026Z,2.90
2018-11-04T04:39:41.432Z,2.90
2018-11-04T04:42:09.886Z,3.00
2018-11-04T04:44:38.268Z,2.90
2018-11-04T04:47:06.708Z,3.00
2018-11-04T04:49:35.109Z,3.00
2018-11-04T04:52:03.601Z,3.10
2018-11-04T04:54:32.006Z,3.10
2018-11-04T04:57:00.603Z,3.20
2018-11-04T04:59:29.106Z,3.20
2018-11-04T05:01:58.532Z,3.20
2018-11-04T05:04:26.956Z,3.30
2018-11-04T05:06:55.448Z,3.40
2018-11-04T05:09:23.925Z,3.40
2018-11-04T05:11:52.316Z,3.40
2018-11-04T05:14:20.864Z,3.40
2018-11-04T05:16:49.295Z,3.50
2018-11-04T05:19:17.719Z,3.50
2018-11-04T05:21:46.172Z,3.50
2018-11-04T05:24:14.569Z,3.60
2018-11-04T05:26:43.079Z,3.60
2018-11-04T05:29:11.501Z,3.70
2018-11-04T05:31:39.936Z,3.70
2018-11-04T05:34:08.352Z,3.80
2018-11-04T05:36:36.796Z,3.90
2018-11-04T05:39:07.557Z,4.10
2018-11-04T05:41:36.314Z,4.10
2018-11-04T05:44:05.013Z,4.20
2018-11-04T05:46:33.457Z,4.30
2018-11-04T05:49:01.889Z,4.40
2018-11-04T05:51:30.294Z,4.40
2018-11-04T05:53:58.708Z,4.40
2018-11-04T05:56:27.165Z,4.50
2018-11-04T05:58:55.640Z,4.50
2018-11-04T06:01:24.267Z,4.50
2018-11-04T06:03:52.696Z,4.50
2018-11-04T06:06:21.105Z,4.50
2018-11-04T06:08:49.776Z,4.50
2018-11-04T06:11:18.177Z,4.50
2018-11-04T06:13:46.667Z,4.60
2018-11-04T06:16:15.070Z,4.60
2018-11-04T06:18:43.487Z,4.70
2018-11-04T06:21:11.925Z,4.70
2018-11-04T06:23:40.355Z,4.70
2018-11-04T06:26:08.961Z,4.70
2018-11-04T06:28:37.377Z,4.60
2018-11-04T06:31:05.820Z,4.70
2018-11-04T06:33:34.878Z,4.70
2018-11-04T06:36:03.288Z,4.70
2018-11-04T06:38:31.717Z,4.80
2018-11-04T06:41:00.161Z,4.90
2018-11-04T06:43:28.603Z,5.00
2018-11-04T06:45:57.092Z,5.00
2018-11-04T06:48:25.546Z,5.10
2018-11-04T06:50:54.412Z,5.10
2018-11-04T06:53:22.828Z,5.20
2018-11-04T06:55:51.248Z,5.20
2018-11-04T06:58:19.685Z,5.30
2018-11-04T07:00:48.105Z,5.30
2018-11-04T07:03:16.520Z,5.30
2018-11-04T07:05:44.944Z,5.30
2018-11-04T07:08:13.408Z,5.30
2018-11-04T07:10:41.873Z,5.40
2018-11-04T07:13:10.958Z,5.50
2018-11-04T07:15:39.438Z,5.60
2018-11-04T07:18:07.860Z,5.60
2018-11-04T07:20:36.397Z,5.60
2018-11-04T07:23:05.336Z,5.70
2018-11-04T07:25:33.845Z,5.70
2018-11-04T07:28:02.295Z,5.70
2018-11-04T07:30:30.718Z,5.80
2018-11-04T07:32:59.150Z,5.80
2018-11-04T07:35:27.628Z,5.90
2018-11-04T07:37:56.134Z,5.90
2018-11-04T07:40:24.550Z,6.00
2018-11-04T07:42:52.983Z,6.10
2018-11-04T07:45:21.433Z,6.20
2018-11-04T07:47:50.013Z,6.30
2018-11-04T07:50:18.505Z,6.40
2018-11-04T07:52:47.001Z,6.50
2018-11-04T07:55:15.521Z,6.50
2018-11-04T07:57:44.314Z,6.60
2018-11-04T08:00:14.838Z,6.80
2018-11-04T08:02:44.113Z,6.90
2018-11-04T08:05:13.051Z,7.00
2018-11-04T08:07:42.196Z,7.10
2018-11-04T08:10:12.213Z,7.20
2018-11-04T08:12:40.944Z,7.30
2018-11-04T08:15:10.174Z,7.40
2018-11-04T08:17:39.072Z,7.50
2018-11-04T08:20:08.497Z,7.60
2018-11-04T08:22:37.393Z,7.50
2018-11-04T08:25:06.302Z,7.50
2018-11-04T08:27:34.742Z,7.50
2018-11-04T08:30:03.253Z,7.60
2018-11-04T08:32:31.673Z,7.70
2018-11-04T08:35:00.126Z,7.80
2018-11-04T08:37:28.536Z,7.90
2018-11-04T08:39:57.081Z,8.00
2018-11-04T08:42:25.409Z,8.00
2018-11-04T08:44:53.850Z,8.00
2018-11-04T08:47:22.298Z,8.00
2018-11-04T08:49:50.791Z,8.10
2018-11-04T08:52:19.398Z,8.10
2018-11-04T08:54:48.465Z,8.10
2018-11-04T08:57:17.604Z,8.10
2018-11-04T08:59:46.046Z,8.20
2018-11-04T09:02:15.328Z,8.30
2018-11-04T09:04:44.493Z,8.40
2018-11-04T09:07:13.077Z,8.50
2018-11-04T09:09:41.503Z,8.60
2018-11-04T09:12:11.941Z,8.70
2018-11-04T09:14:41.964Z,8.70
2018-11-04T09:17:11.120Z,8.70
2018-11-04T09:19:40.101Z,8.70
2018-11-04T09:22:08.605Z,8.80
2018-11-04T09:24:37.065Z,9.00
2018-11-04T09:27:05.496Z,9.10
2018-11-04T09:29:34.056Z,9.10
2018-11-04T09:32:02.920Z,9.10
2018-11-04T09:34:32.984Z,9.20
2018-11-04T09:37:02.144Z,9.20
2018-11-04T09:39:32.250Z,9.10
2018-11-04T09:42:00.699Z,9.00
2018-11-04T09:44:29.183Z,9.10
2018-11-04T09:46:57.648Z,9.20
2018-11-04T09:49:26.133Z,9.20
2018-11-04T09:51:54.699Z,9.20
2018-11-04T09:54:24.037Z,9.30
2018-11-04T09:56:53.170Z,9.40
2018-11-04T09:59:22.293Z,9.40
2018-11-04T10:01:50.886Z,9.50
2018-11-04T10:04:19.373Z,9.50
2018-11-04T10:06:47.889Z,9.50
2018-11-04T10:09:16.518Z,9.60
2018-11-04T10:11:45.507Z,9.70
2018-11-04T10:14:14.005Z,9.70
2018-11-04T10:16:43.749Z,9.70
2018-11-04T10:19:12.351Z,9.70
2018-11-04T10:21:40.672Z,9.70
2018-11-04T10:24:09.634Z,9.80
2018-11-04T10:26:38.092Z,10.00
2018-11-04T10:29:07.189Z,10.00
2018-11-04T10:31:35.665Z,10.10
2018-11-04T10:34:05.494Z,10.20
2018-11-04T10:36:34.019Z,10.20
2018-11-04T10:39:02.996Z,10.20
2018-11-04T10:41:31.461Z,10.20
2018-11-04T10:43:59.922Z,10.20
2018-11-04T10:46:28.436Z,10.20
2018-11-04T10:48:56.921Z,10.40
2018-11-04T10:51:25.425Z,10.50
2018-11-04T10:53:53.884Z,10.60
2018-11-04T10:56:22.409Z,10.50
2018-11-04T10:58:51.403Z,10.40
2018-11-04T11:01:19.857Z,10.60
2018-11-04T11:03:48.289Z,10.90
2018-11-04T11:06:16.792Z,11.20
2018-11-04T11:08:45.240Z,11.40
2018-11-04T11:11:13.816Z,11.50
2018-11-04T11:13:42.254Z,11.70
2018-11-04T11:16:10.728Z,12.10
2018-11-04T11:18:42.358Z,12.20
2018-11-04T11:21:11.511Z,12.80
2018-11-04T11:23:40.523Z,12.80
2018-11-04T11:26:10.298Z,12.60
2018-11-04T11:28:39.343Z,12.60
2018-11-04T11:31:07.893Z,12.60
2018-11-04T11:33:36.535Z,13.20
2018-11-04T11:36:07.309Z,13.80
2018-11-04T11:38:35.990Z,14.00
2018-11-04T11:41:04.693Z,14.40
2018-11-04T11:43:33.616Z,14.60
2018-11-04T11:46:02.090Z,14.30
2018-11-04T11:48:30.696Z,13.80
2018-11-04T11:50:59.378Z,14.20
2018-11-04T11:53:27.891Z,14.50
2018-11-04T11:55:56.370Z,14.30
2018-11-04T11:58:25.034Z,14.50
2018-11-04T12:00:55.598Z,15.20
2018-11-04T12:03:24.137Z,15.50
2018-11-04T12:05:53.294Z,15.50
2018-11-04T12:08:21.867Z,15.40
2018-11-04T12:10:50.408Z,15.70
2018-11-04T12:13:19.063Z,15.80
2018-11-04T12:15:47.577Z,16.10
2018-11-04T12:18:16.703Z,16.30
2018-11-04T12:20:45.161Z,16.40
2018-11-04T12:23:13.636Z,15.90
2018-11-04T12:25:42.076Z,15.90
2018-11-04T12:28:10.556Z,15.80
2018-11-04T12:30:39.685Z,15.90
2018-11-04T12:33:08.220Z,15.80
2018-11-04T12:35:36.650Z,15.70
2018-11-04T12:38:05.400Z,16.30
2018-11-04T12:40:33.994Z,16.30
2018-11-04T12:43:02.409Z,15.70
2018-11-04T12:45:32.533Z,15.20
2018-11-04T12:48:00.994Z,15.50
2018-11-04T12:50:29.416Z,16.00
2018-11-04T12:52:57.859Z,15.90
2018-11-04T12:55:26.968Z,15.50
2018-11-04T12:57:56.004Z,15.50
2018-11-04T13:00:25.560Z,15.00
2018-11-04T13:02:54.009Z,14.90
2018-11-04T13:05:22.484Z,14.60
2018-11-04T13:07:50.984Z,14.20
2018-11-04T13:10:19.534Z,14.20
2018-11-04T13:12:47.889Z,14.20
2018-11-04T13:15:16.369Z,14.00
2018-11-04T13:17:45.011Z,13.50
2018-11-04T13:20:13.523Z,13.10
2018-11-04T13:22:42.044Z,13.10
2018-11-04T13:25:10.985Z,12.90
2018-11-04T13:27:39.440Z,12.90
2018-11-04T13:30:09.802Z,12.90
2018-11-04T13:32:38.603Z,12.80
2018-11-04T13:35:07.268Z,12.60
2018-11-04T13:37:35.832Z,12.60
2018-11-04T13:40:05.500Z,12.70
2018-11-04T13:42:33.944Z,12.70
2018-11-04T13:45:02.421Z,12.80
2018-11-04T13:47:31.182Z,12.90
2018-11-04T13:49:59.660Z,13.00
2018-11-04T13:52:28.366Z,12.90
2018-11-04T13:54:56.957Z,12.90
2018-11-04T13:57:25.392Z,12.70
2018-11-04T13:59:53.879Z,12.60
2018-11-04T14:02:23.589Z,12.50
2018-11-04T14:04:52.144Z,12.40
2018-11-04T14:07:21.409Z,12.10
2018-11-04T14:09:49.850Z,11.90
2018-11-04T14:12:28.610Z,11.80
2018-11-04T14:14:57.039Z,11.80
2018-11-04T14:17:25.485Z,11.80
2018-11-04T14:19:53.944Z,11.90
2018-11-04T14:22:22.464Z,11.90
2018-11-04T14:24:51.562Z,11.90
2018-11-04T14:27:20.009Z,11.90
2018-11-04T14:29:48.474Z,11.90
2018-11-04T14:32:17.217Z,11.90
2018-11-04T14:34:45.736Z,11.90
2018-11-04T14:37:14.158Z,11.90
2018-11-04T14:39:42.719Z,11.90
2018-11-04T14:42:11.196Z,11.90
2018-11-04T14:44:39.657Z,11.80
2018-11-04T14:47:08.130Z,11.80
2018-11-04T14:49:36.740Z,11.70
2018-11-04T14:52:06.315Z,11.70
2018-11-04T14:54:34.748Z,11.60
2018-11-04T14:57:03.201Z,11.70
2018-11-04T14:59:31.629Z,11.60
2018-11-04T15:02:00.976Z,11.50
2018-11-04T15:04:29.234Z,11.50
2018-11-04T15:06:57.701Z,11.40
2018-11-04T15:09:26.153Z,11.40
2018-11-04T15:11:55.317Z,11.30
2018-11-04T15:14:23.744Z,11.30
2018-11-04T15:16:52.229Z,11.30
2018-11-04T15:19:20.664Z,11.20
2018-11-04T15:21:49.112Z,11.20
2018-11-04T15:24:18.298Z,11.10
2018-11-04T15:26:46.751Z,11.00
2018-11-04T15:29:15.196Z,10.90
2018-11-04T15:31:43.656Z,10.90
2018-11-04T15:34:12.533Z,10.80
2018-11-04T15:36:40.903Z,10.80
2018-11-04T15:39:11.007Z,10.80
2018-11-04T15:41:39.444Z,10.80
2018-11-04T15:44:08.340Z,10.90
2018-11-04T15:46:36.873Z,10.80
2018-11-04T15:49:06.023Z,10.70
2018-11-04T15:51:34.437Z,10.70
2018-11-04T15:54:02.952Z,10.60
2018-11-04T15:56:31.398Z,10.50
2018-11-04T15:58:59.817Z,10.50
2018-11-04T16:01:28.361Z,10.60
2018-11-04T16:03:56.798Z,10.50
2018-11-04T16:06:25.235Z,10.50
2018-11-04T16:08:55.033Z,10.40
2018-11-04T16:11:24.550Z,10.30
2018-11-04T16:13:53.007Z,10.30
2018-11-04T16:16:21.460Z,10.20
2018-11-04T16:18:49.971Z,10.20
2018-11-04T16:21:18.439Z,10.20
2018-11-04T16:23:46.883Z,10.10
2018-11-04T16:26:15.280Z,10.00
2018-11-04T16:28:43.723Z,10.00
2018-11-04T16:31:12.157Z,10.10
2018-11-04T16:33:41.130Z,10.00
2018-11-04T16:36:09.548Z,9.90
2018-11-04T16:38:38.003Z,9.90
2018-11-04T16:41:06.553Z,9.90
2018-11-04T16:43:35.865Z,9.80
2018-11-04T16:46:05.463Z,9.60
2018-11-04T16:48:33.892Z,9.50
2018-11-04T16:51:02.308Z,9.40
2018-11-04T16:53:30.747Z,9.40
2018-11-04T16:55:59.146Z,9.40
2018-11-04T16:58:27.612Z,9.40
2018-11-04T17:00:56.744Z,9.40
2018-11-04T17:03:25.242Z,9.30
2018-11-04T17:05:53.689Z,9.30
2018-11-04T17:08:22.115Z,9.30
2018-11-04T17:10:50.545Z,9.30
2018-11-04T17:13:18.920Z,9.40
2018-11-04T17:15:47.348Z,9.40
2018-11-04T17:18:15.923Z,9.40
2018-11-04T17:20:44.337Z,9.40
2018-11-04T17:23:12.729Z,9.40
2018-11-04T17:25:41.143Z,9.40
2018-11-04T17:28:09.564Z,9.40
2018-11-04T17:30:40.890Z,9.40
2018-11-04T17:33:09.385Z,9.40
2018-11-04T17:35:37.797Z,9.30
2018-11-04T17:38:06.261Z,9.20
2018-11-04T17:40:34.645Z,9.10
2018-11-04T17:43:03.068Z,9.10
2018-11-04T17:45:31.519Z,9.00
2018-11-04T17:47:59.925Z,9.00
2018-11-04T17:50:28.367Z,8.90
2018-11-04T17:52:56.908Z,8.90
2018-11-04T17:55:25.358Z,8.80
2018-11-04T17:57:53.850Z,8.80
2018-11-04T18:00:22.298Z,8.80
2018-11-04T18:02:50.698Z,8.80
2018-11-04T18:05:19.141Z,8.80
2018-11-04T18:07:47.581Z,8.80
2018-11-04T18:10:16.549Z,8.80
2018-11-04T18:12:45.027Z,8.90
2018-11-04T18:15:14.430Z,8.90
2018-11-04T18:17:43.032Z,8.90
2018-11-04T18:20:12.017Z,8.90
2018-11-04T18:22:40.526Z,8.90
2018-11-04T18:25:10.314Z,8.90
2018-11-04T18:27:39.406Z,9.00
2018-11-04T18:30:10.117Z,9.00
2018-11-04T18:32:38.560Z,9.00
2018-11-04T18:35:07.693Z,9.00
2018-11-04T18:37:42.249Z,8.90
2018-11-04T18:40:12.715Z,8.90
2018-11-04T18:42:41.346Z,8.80
2018-11-04T18:45:11.180Z,8.80
2018-11-04T18:47:39.643Z,8.80
2018-11-04T18:50:09.297Z,8.80
2018-11-04T18:52:38.386Z,8.70
2018-11-04T18:55:07.760Z,8.70
2018-11-04T18:57:36.181Z,8.60
2018-11-04T19:00:05.917Z,8.60
2018-11-04T19:02:34.328Z,8.50
2018-11-04T19:05:02.786Z,8.40
2018-11-04T19:07:31.221Z,8.40
2018-11-04T19:09:59.796Z,8.40
2018-11-04T19:12:28.766Z,8.40
2018-11-04T19:14:57.227Z,8.40
2018-11-04T19:17:25.708Z,8.40
2018-11-04T19:19:54.133Z,8.40
2018-11-04T19:22:22.609Z,8.20
2018-11-04T19:24:51.101Z,8.10
2018-11-04T19:27:19.535Z,8.00
2018-11-04T19:29:48.501Z,7.90
2018-11-04T19:32:17.676Z,7.80
2018-11-04T19:34:46.060Z,7.70
2018-11-04T19:37:14.614Z,7.80
2018-11-04T19:39:43.101Z,7.80
2018-11-04T19:42:11.532Z,7.70
2018-11-04T19:44:40.012Z,7.70
2018-11-04T19:47:08.764Z,7.70
2018-11-04T19:49:37.337Z,7.70
2018-11-04T19:52:05.841Z,7.80
2018-11-04T19:54:34.288Z,7.80
2018-11-04T19:57:02.825Z,7.90
2018-11-04T19:59:31.333Z,8.00
2018-11-04T20:01:59.835Z,8.00
2018-11-04T20:04:28.243Z,8.00
2018-11-04T20:06:56.652Z,8.00
2018-11-04T20:09:25.737Z,8.00
2018-11-04T20:11:54.183Z,7.90
2018-11-04T20:14:23.935Z,7.80
2018-11-04T20:16:53.464Z,7.80
2018-11-04T20:19:28.328Z,7.60
2018-11-04T20:21:56.848Z,7.50
2018-11-04T20:24:30.645Z,7.40
2018-11-04T20:26:59.073Z,7.40
2018-11-04T20:29:28.833Z,7.40
2018-11-04T20:32:02.745Z,7.40
2018-11-04T20:34:31.237Z,7.40
2018-11-04T20:36:59.714Z,7.30
2018-11-04T20:39:34.010Z,7.30
2018-11-04T20:42:03.257Z,7.30
2018-11-04T20:44:34.469Z,7.30
2018-11-04T20:47:02.882Z,7.20
2018-11-04T20:49:36.660Z,7.30
2018-11-04T20:52:05.501Z,7.30
2018-11-04T20:54:35.317Z,7.20
2018-11-04T20:57:10.113Z,7.20
2018-11-04T20:59:38.557Z,7.20
2018-11-04T21:02:08.035Z,7.20
2018-11-04T21:04:36.385Z,7.20
2018-11-04T21:07:05.189Z,7.20
2018-11-04T21:09:33.618Z,7.20
2018-11-04T21:12:02.791Z,7.20
2018-11-04T21:14:31.256Z,7.20
2018-11-04T21:16:59.693Z,7.20
2018-11-04T21:19:28.134Z,7.30
2018-11-04T21:21:56.546Z,7.30
2018-11-04T21:24:24.958Z,7.20
2018-11-04T21:26:53.865Z,7.20
2018-11-04T21:29:23.429Z,7.10
2018-11-04T21:31:51.497Z,7.10
2018-11-04T21:34:19.961Z,7.00
2018-11-04T21:36:48.377Z,6.90
2018-11-04T21:39:16.888Z,6.90
2018-11-04T21:41:45.426Z,6.90
2018-11-04T21:44:14.102Z,6.90
2018-11-04T21:46:42.277Z,6.90
2018-11-04T21:49:11.620Z,6.90
2018-11-04T21:51:40.030Z,6.90
2018-11-04T21:54:08.456Z,6.80
2018-11-04T21:56:37.184Z,6.80
2018-11-04T21:59:05.760Z,6.90
2018-11-04T22:01:34.177Z,6.80
2018-11-04T22:04:02.707Z,6.80
2018-11-04T22:06:31.013Z,6.80
2018-11-04T22:08:59.439Z,6.80
2018-11-04T22:11:27.834Z,6.80
2018-11-04T22:13:56.377Z,6.70
2018-11-04T22:16:24.737Z,6.70
2018-11-04T22:18:53.138Z,6.70
2018-11-04T22:21:22.154Z,6.60
2018-11-04T22:23:50.568Z,6.50
2018-11-04T22:26:18.996Z,6.40
2018-11-04T22:28:47.396Z,6.40
2018-11-04T22:31:15.891Z,6.40
2018-11-04T22:33:44.325Z,6.40
2018-11-04T22:36:12.937Z,6.40
2018-11-04T22:38:41.580Z,6.50
2018-11-04T22:41:10.458Z,6.40
2018-11-04T22:43:38.905Z,6.40
2018-11-04T22:46:07.309Z,6.30
2018-11-04T22:48:35.713Z,6.20
2018-11-04T22:51:04.124Z,6.20
2018-11-04T22:53:32.556Z,6.10
2018-11-04T22:56:01.039Z,6.10
2018-11-04T22:58:29.406Z,6.10
2018-11-04T23:00:59.199Z,6.20
2018-11-04T23:03:27.812Z,6.20
2018-11-04T23:05:56.561Z,6.30
2018-11-04T23:08:24.961Z,6.30
2018-11-04T23:10:53.491Z,6.20
2018-11-04T23:13:21.888Z,6.30
2018-11-04T23:15:50.293Z,6.40
2018-11-04T23:18:18.714Z,6.30
2018-11-04T23:20:47.122Z,6.30
2018-11-04T23:23:15.504Z,6.10
2018-11-04T23:25:43.909Z,6.10
2018-11-04T23:28:12.402Z,6.20
2018-11-04T23:30:40.825Z,6.20
2018-11-04T23:33:09.227Z,6.20
2018-11-04T23:35:37.636Z,6.20
2018-11-04T23:38:06.086Z,6.30
2018-11-04T23:40:34.520Z,6.30
2018-11-04T23:43:03.008Z,6.20
2018-11-04T23:45:31.418Z,6.20
2018-11-04T23:48:00.360Z,6.10
2018-11-04T23:50:28.732Z,6.10
2018-11-04T23:52:57.144Z,6.10
2018-11-04T23:55:25.596Z,6.10
2018-11-04T23:57:54.010Z,6.10
